createdAt,value
2022-08-06T00:00:02.567Z,21.20
2022-08-06T00:02:25.585Z,21.20
2022-08-06T00:04:56.228Z,21.20
2022-08-06T00:07:26.290Z,21.10
2022-08-06T00:10:00.912Z,21.20
2022-08-06T00:12:30.778Z,21.20
2022-08-06T00:14:58.498Z,21.20
2022-08-06T00:17:30.101Z,21.10
2022-08-06T00:20:00.178Z,21.20
2022-08-06T00:22:29.212Z,21.10
2022-08-06T00:24:58.197Z,21.00
2022-08-06T00:27:29.257Z,21.00
2022-08-06T00:30:14.732Z,21.00
2022-08-06T00:32:44.805Z,21.00
2022-08-06T00:35:13.156Z,21.00
2022-08-06T00:37:57.149Z,21.00
2022-08-06T00:40:29.494Z,20.90
2022-08-06T00:43:02.275Z,20.90
2022-08-06T00:45:33.519Z,20.90
2022-08-06T00:48:06.984Z,20.90
2022-08-06T00:50:34.176Z,20.90
2022-08-06T00:53:02.757Z,21.00
2022-08-06T00:55:31.895Z,20.90
2022-08-06T00:58:06.346Z,21.00
2022-08-06T01:00:36.992Z,21.00
2022-08-06T01:03:05.690Z,21.00
2022-08-06T01:06:04.043Z,21.00
2022-08-06T01:08:19.572Z,21.00
2022-08-06T01:10:46.365Z,21.00
2022-08-06T01:13:25.086Z,21.00
2022-08-06T01:16:08.977Z,21.00
2022-08-06T01:18:58.762Z,21.00
2022-08-06T01:22:40.623Z,21.00
2022-08-06T01:25:46.560Z,20.90
2022-08-06T01:28:28.500Z,20.90
2022-08-06T01:31:03.263Z,21.00
2022-08-06T01:33:39.037Z,20.90
2022-08-06T01:36:08.687Z,21.00
2022-08-06T01:38:43.673Z,21.00
2022-08-06T01:41:13.888Z,21.00
2022-08-06T01:44:05.640Z,21.00
2022-08-06T01:46:27.565Z,21.00
2022-08-06T01:48:54.623Z,21.00
2022-08-06T01:52:13.424Z,21.00
2022-08-06T01:54:09.535Z,21.00
2022-08-06T01:56:56.928Z,21.00
2022-08-06T01:59:27.768Z,21.00
2022-08-06T02:01:58.249Z,20.90
2022-08-06T02:04:27.283Z,20.90
2022-08-06T02:06:54.164Z,20.90
2022-08-06T02:09:33.901Z,20.90
2022-08-06T02:12:08.335Z,20.90
2022-08-06T02:14:50.497Z,20.90
2022-08-06T02:17:17.770Z,20.90
2022-08-06T02:20:07.990Z,20.90
2022-08-06T02:22:42.501Z,20.90
2022-08-06T02:25:14.481Z,20.90
2022-08-06T02:27:53.080Z,20.90
2022-08-06T02:30:28.836Z,20.90
2022-08-06T02:33:02.633Z,20.90
2022-08-06T02:35:30.622Z,20.90
2022-08-06T02:38:07.945Z,20.90
2022-08-06T02:40:39.918Z,20.90
2022-08-06T02:43:15.078Z,20.90
2022-08-06T02:46:05.302Z,20.90
2022-08-06T02:48:36.872Z,20.80
2022-08-06T02:51:29.520Z,20.80
2022-08-06T02:54:08.600Z,20.90
2022-08-06T02:56:42.758Z,20.90
2022-08-06T02:59:16.346Z,20.90
2022-08-06T03:01:48.471Z,20.90
2022-08-06T03:04:17.726Z,20.90
2022-08-06T03:06:46.895Z,20.90
2022-08-06T03:09:15.078Z,20.90
2022-08-06T03:11:43.289Z,20.80
2022-08-06T03:14:13.194Z,20.80
2022-08-06T03:16:57.837Z,20.80
2022-08-06T03:19:55.005Z,20.80
2022-08-06T03:22:18.829Z,20.80
2022-08-06T03:25:00.378Z,20.80
2022-08-06T03:27:30.757Z,20.90
2022-08-06T03:30:11.985Z,20.90
2022-08-06T03:32:52.651Z,20.80
2022-08-06T03:35:41.871Z,20.80
2022-08-06T03:38:08.540Z,20.80
2022-08-06T03:40:35.425Z,20.80
2022-08-06T03:43:07.493Z,20.80
2022-08-06T03:45:45.798Z,20.80
2022-08-06T03:48:35.915Z,20.80
2022-08-06T03:51:09.725Z,20.80
2022-08-06T03:53:38.754Z,20.80
2022-08-06T03:56:14.646Z,20.70
2022-08-06T03:58:41.582Z,20.70
2022-08-06T04:01:12.204Z,20.80
2022-08-06T04:03:39.605Z,20.80
2022-08-06T04:06:16.061Z,20.80
2022-08-06T04:08:43.556Z,20.80
2022-08-06T04:12:13.383Z,20.80
2022-08-06T04:14:05.970Z,20.80
2022-08-06T04:16:36.125Z,20.80
2022-08-06T04:19:09.100Z,20.70
2022-08-06T04:23:06.276Z,20.70
2022-08-06T04:24:29.970Z,20.70
2022-08-06T04:26:59.833Z,20.80
2022-08-06T04:29:32.975Z,20.70
2022-08-06T04:32:20.075Z,20.70
2022-08-06T04:36:06.063Z,20.80
2022-08-06T04:37:39.043Z,20.80
2022-08-06T04:40:13.073Z,20.70
2022-08-06T04:42:42.648Z,20.80
2022-08-06T04:46:18.586Z,20.70
2022-08-06T04:47:56.815Z,20.80
2022-08-06T04:50:25.136Z,20.80
2022-08-06T04:52:53.159Z,20.80
2022-08-06T04:55:25.133Z,20.80
2022-08-06T04:58:11.170Z,20.80
2022-08-06T05:00:59.893Z,20.80
2022-08-06T05:04:08.870Z,20.80
2022-08-06T05:06:26.880Z,20.80
2022-08-06T05:08:58.384Z,20.90
2022-08-06T05:11:33.808Z,20.80
2022-08-06T05:14:03.285Z,20.90
2022-08-06T05:16:37.734Z,20.90
2022-08-06T05:19:19.655Z,20.90
2022-08-06T05:22:05.580Z,20.90
2022-08-06T05:24:39.561Z,20.90
2022-08-06T05:27:24.014Z,20.90
2022-08-06T05:29:52.425Z,21.00
2022-08-06T05:32:24.819Z,21.00
2022-08-06T05:34:52.893Z,21.00
2022-08-06T05:37:23.681Z,21.10
2022-08-06T05:39:57.347Z,21.20
2022-08-06T05:42:26.318Z,21.20
2022-08-06T05:44:53.419Z,21.30
2022-08-06T05:47:22.949Z,21.40
2022-08-06T05:49:58.776Z,21.40
2022-08-06T05:52:51.981Z,21.40
2022-08-06T05:55:44.459Z,21.50
2022-08-06T05:58:18.845Z,21.60
2022-08-06T06:00:45.781Z,21.60
2022-08-06T06:03:24.478Z,21.60
2022-08-06T06:06:04.586Z,21.60
2022-08-06T06:08:40.138Z,21.60
2022-08-06T06:11:12.605Z,21.60
2022-08-06T06:13:59.659Z,21.60
2022-08-06T06:16:43.620Z,21.70
2022-08-06T06:19:20.179Z,21.70
2022-08-06T06:21:57.382Z,21.70
2022-08-06T06:24:28.668Z,21.70
2022-08-06T06:26:57.495Z,21.70
2022-08-06T06:30:02.738Z,21.80
2022-08-06T06:32:52.065Z,21.80
2022-08-06T06:35:32.797Z,21.80
2022-08-06T06:38:26.479Z,21.80
2022-08-06T06:41:27.641Z,21.80
2022-08-06T06:44:03.059Z,21.90
2022-08-06T06:47:06.090Z,21.90
2022-08-06T06:50:00.569Z,21.90
2022-08-06T06:52:33.944Z,22.00
2022-08-06T06:55:18.788Z,22.00
2022-08-06T06:57:49.389Z,22.00
2022-08-06T07:00:45.562Z,22.00
2022-08-06T07:03:09.587Z,22.10
2022-08-06T07:06:05.055Z,22.10
2022-08-06T07:08:32.185Z,22.10
2022-08-06T07:11:05.893Z,22.10
2022-08-06T07:13:47.032Z,22.20
2022-08-06T07:16:22.590Z,22.30
2022-08-06T07:19:04.011Z,22.20
2022-08-06T07:21:30.841Z,22.10
2022-08-06T07:24:06.999Z,22.10
2022-08-06T07:26:50.604Z,22.10
2022-08-06T07:29:48.411Z,22.10
2022-08-06T07:32:05.501Z,22.10
2022-08-06T07:34:32.424Z,22.10
2022-08-06T07:37:01.109Z,22.10
2022-08-06T07:39:34.930Z,22.00
2022-08-06T07:42:11.596Z,22.00
2022-08-06T07:44:56.574Z,22.00
2022-08-06T07:47:46.289Z,22.00
2022-08-06T07:50:14.265Z,22.10
2022-08-06T07:52:42.704Z,22.10
2022-08-06T07:55:11.655Z,22.10
2022-08-06T07:57:54.617Z,22.10
2022-08-06T08:00:23.625Z,22.10
2022-08-06T08:03:10.479Z,22.10
2022-08-06T08:06:01.077Z,22.20
2022-08-06T08:08:28.213Z,22.20
2022-08-06T08:10:55.253Z,22.20
2022-08-06T08:13:41.316Z,22.30
2022-08-06T08:16:09.474Z,22.30
2022-08-06T08:18:36.737Z,22.40
2022-08-06T08:21:05.797Z,22.50
2022-08-06T08:23:37.389Z,22.60
2022-08-06T08:26:09.278Z,22.70
2022-08-06T08:28:38.629Z,22.80
2022-08-06T08:31:20.584Z,22.90
2022-08-06T08:33:48.015Z,23.00
2022-08-06T08:36:15.041Z,23.10
2022-08-06T08:38:43.428Z,23.20
2022-08-06T08:41:22.251Z,23.20
2022-08-06T08:43:59.894Z,23.30
2022-08-06T08:46:30.790Z,23.50
2022-08-06T08:49:00.813Z,23.60
2022-08-06T08:51:28.644Z,23.70
2022-08-06T08:53:58.518Z,23.70
2022-08-06T08:57:08.111Z,23.80
2022-08-06T08:59:58.950Z,24.00
2022-08-06T09:01:59.001Z,24.20
2022-08-06T09:04:28.329Z,24.30
2022-08-06T09:06:56.425Z,24.40
2022-08-06T09:09:30.177Z,24.50
2022-08-06T09:12:04.943Z,24.50
2022-08-06T09:14:36.685Z,24.50
2022-08-06T09:17:04.665Z,24.60
2022-08-06T09:19:37.312Z,24.50
2022-08-06T09:22:05.193Z,24.50
2022-08-06T09:24:35.510Z,24.50
2022-08-06T09:27:45.145Z,24.50
2022-08-06T09:30:04.735Z,24.40
2022-08-06T09:32:55.479Z,24.40
2022-08-06T09:35:43.145Z,24.50
2022-08-06T09:38:12.061Z,24.40
2022-08-06T09:41:07.191Z,24.40
2022-08-06T09:44:02.736Z,24.50
2022-08-06T09:46:40.659Z,24.50
2022-08-06T09:49:48.779Z,24.60
2022-08-06T09:52:14.023Z,24.60
2022-08-06T09:54:40.875Z,24.60
2022-08-06T09:57:07.777Z,24.70
2022-08-06T09:59:50.347Z,24.70
2022-08-06T10:02:23.677Z,24.80
2022-08-06T10:04:56.509Z,24.80
2022-08-06T10:07:40.422Z,24.80
2022-08-06T10:10:08.413Z,24.90
2022-08-06T10:12:36.421Z,24.90
2022-08-06T10:15:05.115Z,24.90
2022-08-06T10:17:49.662Z,24.90
2022-08-06T10:20:20.195Z,24.90
2022-08-06T10:22:58.196Z,25.00
2022-08-06T10:25:30.111Z,25.00
2022-08-06T10:27:57.484Z,25.00
2022-08-06T10:30:24.833Z,25.00
2022-08-06T10:33:00.217Z,24.90
2022-08-06T10:35:29.955Z,24.90
2022-08-06T10:38:03.803Z,25.00
2022-08-06T10:40:31.547Z,24.90
2022-08-06T10:43:00.482Z,24.90
2022-08-06T10:45:27.828Z,24.80
2022-08-06T10:48:58.269Z,24.80
2022-08-06T10:51:02.189Z,24.80
2022-08-06T10:54:01.720Z,24.80
2022-08-06T10:56:18.194Z,24.80
2022-08-06T10:58:53.519Z,24.70
2022-08-06T11:01:24.560Z,24.70
2022-08-06T11:04:35.568Z,24.80
2022-08-06T11:08:09.678Z,24.80
2022-08-06T11:10:38.396Z,24.80
2022-08-06T11:13:37.212Z,24.70
2022-08-06T11:16:30.120Z,24.60
2022-08-06T11:19:07.304Z,24.50
2022-08-06T11:22:02.248Z,24.40
2022-08-06T11:24:33.265Z,24.40
2022-08-06T11:27:10.891Z,24.30
2022-08-06T11:30:09.256Z,24.30
2022-08-06T11:32:46.792Z,24.30
2022-08-06T11:35:36.289Z,24.40
2022-08-06T11:38:37.861Z,24.50
2022-08-06T11:41:10.027Z,24.40
2022-08-06T11:44:02.731Z,24.50
2022-08-06T11:46:39.668Z,24.50
2022-08-06T11:49:23.866Z,24.50
2022-08-06T11:52:06.201Z,24.50
2022-08-06T11:54:57.543Z,24.50
2022-08-06T11:57:40.686Z,24.50
2022-08-06T12:00:12.851Z,24.50
2022-08-06T12:02:44.524Z,24.60
2022-08-06T12:05:14.402Z,24.60
2022-08-06T12:07:52.615Z,24.70
2022-08-06T12:10:29.353Z,24.70
2022-08-06T12:12:56.660Z,24.80
2022-08-06T12:15:59.370Z,24.80
2022-08-06T12:18:20.508Z,24.80
2022-08-06T12:20:54.568Z,24.90
2022-08-06T12:23:53.946Z,24.90
2022-08-06T12:26:10.848Z,25.00
2022-08-06T12:28:37.880Z,25.10
2022-08-06T12:31:34.981Z,25.30
2022-08-06T12:33:52.485Z,25.50
2022-08-06T12:36:31.833Z,25.60
2022-08-06T12:39:00.064Z,25.60
2022-08-06T12:41:45.805Z,25.60
2022-08-06T12:44:13.860Z,25.60
2022-08-06T12:46:41.661Z,25.70
2022-08-06T12:49:10.657Z,25.60
2022-08-06T12:51:37.673Z,25.60
2022-08-06T12:54:06.680Z,25.50
2022-08-06T12:56:37.521Z,25.50
2022-08-06T12:59:05.929Z,25.50
2022-08-06T13:02:10.793Z,25.50
2022-08-06T13:04:22.420Z,25.50
2022-08-06T13:06:57.278Z,25.60
2022-08-06T13:09:35.898Z,25.60
2022-08-06T13:12:29.314Z,25.70
2022-08-06T13:15:18.478Z,25.80
2022-08-06T13:18:13.023Z,25.90
2022-08-06T13:20:52.248Z,25.90
2022-08-06T13:23:36.989Z,25.90
2022-08-06T13:26:27.495Z,25.80
2022-08-06T13:30:34.617Z,25.80
2022-08-06T13:32:27.421Z,25.80
2022-08-06T13:34:59.936Z,25.80
2022-08-06T13:37:56.101Z,25.80
2022-08-06T13:40:38.096Z,25.70
2022-08-06T13:43:04.906Z,25.70
2022-08-06T13:45:56.701Z,25.60
2022-08-06T13:48:23.562Z,25.40
2022-08-06T13:50:50.651Z,25.30
2022-08-06T13:53:17.661Z,25.30
2022-08-06T13:56:01.817Z,25.30
2022-08-06T13:58:30.539Z,25.20
2022-08-06T14:00:57.506Z,25.30
2022-08-06T14:03:24.880Z,25.30
2022-08-06T14:05:53.228Z,25.10
2022-08-06T14:08:34.299Z,25.00
2022-08-06T14:11:02.525Z,25.00
2022-08-06T14:13:30.183Z,25.00
2022-08-06T14:15:56.985Z,25.00
2022-08-06T14:18:28.419Z,25.00
2022-08-06T14:20:55.659Z,24.90
2022-08-06T14:23:23.218Z,24.90
2022-08-06T14:25:59.855Z,24.90
2022-08-06T14:28:30.077Z,24.80
2022-08-06T14:30:58.269Z,24.80
2022-08-06T14:33:36.985Z,24.70
2022-08-06T14:36:05.929Z,24.70
2022-08-06T14:38:34.813Z,24.60
2022-08-06T14:41:49.964Z,24.60
2022-08-06T14:44:25.329Z,24.60
2022-08-06T14:46:52.592Z,24.60
2022-08-06T14:49:19.314Z,24.50
2022-08-06T14:52:19.019Z,24.40
2022-08-06T14:54:33.338Z,24.30
2022-08-06T14:57:14.938Z,24.30
2022-08-06T14:59:48.047Z,24.20
2022-08-06T15:02:16.360Z,24.00
2022-08-06T15:04:45.794Z,23.90
2022-08-06T15:07:25.477Z,23.90
2022-08-06T15:10:05.931Z,23.80
2022-08-06T15:12:48.636Z,23.70
2022-08-06T15:15:18.066Z,23.60
2022-08-06T15:18:07.164Z,23.50
2022-08-06T15:20:32.512Z,23.50
2022-08-06T15:23:00.151Z,23.40
2022-08-06T15:26:02.031Z,23.30
2022-08-06T15:28:14.683Z,23.30
2022-08-06T15:30:41.565Z,23.20
2022-08-06T15:33:13.969Z,23.20
2022-08-06T15:35:43.590Z,23.10
2022-08-06T15:38:24.378Z,23.10
2022-08-06T15:40:51.168Z,23.10
2022-08-06T15:43:20.307Z,23.00
2022-08-06T15:45:52.346Z,23.00
2022-08-06T15:48:28.347Z,22.90
2022-08-06T15:51:27.061Z,22.90
2022-08-06T15:53:43.625Z,22.80
2022-08-06T15:56:34.100Z,22.70
2022-08-06T15:59:11.891Z,22.70
2022-08-06T16:02:01.592Z,22.60
2022-08-06T16:04:27.791Z,22.60
2022-08-06T16:06:56.687Z,22.50
2022-08-06T16:09:28.231Z,22.40
2022-08-06T16:11:57.324Z,22.40
2022-08-06T16:14:33.309Z,22.40
2022-08-06T16:17:06.201Z,22.30
2022-08-06T16:19:33.903Z,22.30
2022-08-06T16:22:15.190Z,22.30
2022-08-06T16:24:43.464Z,22.30
2022-08-06T16:27:10.298Z,22.40
2022-08-06T16:29:37.093Z,22.40
2022-08-06T16:32:04.789Z,22.40
2022-08-06T16:34:36.358Z,22.40
2022-08-06T16:37:28.264Z,22.40
2022-08-06T16:40:00.417Z,22.30
2022-08-06T16:42:30.066Z,22.30
2022-08-06T16:45:03.166Z,22.30
2022-08-06T16:48:21.171Z,22.30
2022-08-06T16:50:36.215Z,22.20
2022-08-06T16:54:08.228Z,22.30
2022-08-06T16:55:52.571Z,22.20
2022-08-06T16:58:34.591Z,22.20
2022-08-06T17:02:14.903Z,22.10
2022-08-06T17:03:59.057Z,22.10
2022-08-06T17:06:29.678Z,22.10
2022-08-06T17:09:00.191Z,22.10
2022-08-06T17:11:46.618Z,22.10
2022-08-06T17:14:17.010Z,22.00
2022-08-06T17:16:46.940Z,22.00
2022-08-06T17:19:17.439Z,22.00
2022-08-06T17:21:52.829Z,22.00
2022-08-06T17:24:33.171Z,22.00
2022-08-06T17:29:53.656Z,21.90
2022-08-06T17:35:11.040Z,21.90
2022-08-06T17:37:45.187Z,21.90
2022-08-06T17:43:12.105Z,21.90
2022-08-06T17:45:40.129Z,21.80
2022-08-06T17:48:24.827Z,21.80
2022-08-06T17:50:52.356Z,21.70
2022-08-06T17:53:21.458Z,21.70
2022-08-06T17:55:59.617Z,21.70
2022-08-06T17:58:33.561Z,21.70
2022-08-06T18:01:09.969Z,21.70
2022-08-06T18:03:51.143Z,21.60
2022-08-06T18:06:19.526Z,21.60
2022-08-06T18:08:57.429Z,21.60
2022-08-06T18:11:25.301Z,21.60
2022-08-06T18:13:54.565Z,21.60
2022-08-06T18:16:29.406Z,21.60
2022-08-06T18:18:57.009Z,21.60
2022-08-06T18:21:24.598Z,21.60
2022-08-06T18:23:56.088Z,21.50
2022-08-06T18:26:30.712Z,21.50
2022-08-06T18:29:04.114Z,21.50
2022-08-06T18:31:59.433Z,21.50
2022-08-06T18:34:18.902Z,21.50
2022-08-06T18:36:48.611Z,21.40
2022-08-06T18:39:15.390Z,21.30
2022-08-06T18:41:57.298Z,21.30
2022-08-06T18:44:27.027Z,21.30
2022-08-06T18:46:56.176Z,21.30
2022-08-06T18:49:38.900Z,21.30
2022-08-06T18:52:23.794Z,21.30
2022-08-06T18:54:56.186Z,21.30
2022-08-06T18:57:28.354Z,21.30
2022-08-06T19:00:06.333Z,21.30
2022-08-06T19:02:44.929Z,21.20
2022-08-06T19:05:14.074Z,21.20
2022-08-06T19:07:49.772Z,21.20
2022-08-06T19:10:18.952Z,21.10
2022-08-06T19:12:48.201Z,21.10
2022-08-06T19:15:19.868Z,21.10
2022-08-06T19:18:13.964Z,21.10
2022-08-06T19:20:38.429Z,21.10
2022-08-06T19:23:06.841Z,21.10
2022-08-06T19:25:52.123Z,21.10
2022-08-06T19:28:34.962Z,21.10
2022-08-06T19:31:07.562Z,21.00
2022-08-06T19:33:38.273Z,21.00
2022-08-06T19:36:26.420Z,21.00
2022-08-06T19:38:53.818Z,21.00
2022-08-06T19:42:00.418Z,21.00
2022-08-06T19:44:25.849Z,20.90
2022-08-06T19:46:57.280Z,20.90
2022-08-06T19:49:24.363Z,20.90
2022-08-06T19:52:03.268Z,20.90
2022-08-06T19:54:36.281Z,20.90
2022-08-06T19:57:08.211Z,20.90
2022-08-06T20:00:52.845Z,20.90
2022-08-06T20:02:22.777Z,20.90
2022-08-06T20:04:55.727Z,20.90
2022-08-06T20:07:25.742Z,20.80
2022-08-06T20:10:01.455Z,20.80
2022-08-06T20:12:38.666Z,20.80
2022-08-06T20:15:08.503Z,20.80
2022-08-06T20:17:46.057Z,20.80
2022-08-06T20:20:17.949Z,20.80
2022-08-06T20:22:45.442Z,20.80
2022-08-06T20:25:19.075Z,20.70
2022-08-06T20:29:09.986Z,20.70
2022-08-06T20:30:44.481Z,20.70
2022-08-06T20:33:19.364Z,20.60
2022-08-06T20:35:57.872Z,20.70
2022-08-06T20:38:39.870Z,20.70
2022-08-06T20:41:57.286Z,20.70
2022-08-06T20:44:04.655Z,20.70
2022-08-06T20:47:01.506Z,20.60
2022-08-06T20:49:29.521Z,20.60
2022-08-06T20:52:08.039Z,20.60
2022-08-06T20:54:35.046Z,20.60
2022-08-06T20:57:05.454Z,20.60
2022-08-06T20:59:33.913Z,20.60
2022-08-06T21:02:04.989Z,20.60
2022-08-06T21:05:16.122Z,20.60
2022-08-06T21:07:36.990Z,20.60
2022-08-06T21:10:11.260Z,20.60
2022-08-06T21:12:44.934Z,20.60
2022-08-06T21:15:26.448Z,20.40
2022-08-06T21:18:12.006Z,20.30
2022-08-06T21:20:41.271Z,20.20
2022-08-06T21:23:14.784Z,20.20
2022-08-06T21:25:43.417Z,20.20
2022-08-06T21:28:13.197Z,20.20
2022-08-06T21:30:41.027Z,20.10
2022-08-06T21:33:08.850Z,20.10
2022-08-06T21:35:35.641Z,20.10
2022-08-06T21:38:08.787Z,20.00
2022-08-06T21:40:50.810Z,20.00
2022-08-06T21:43:18.250Z,19.90
2022-08-06T21:45:58.956Z,19.80
2022-08-06T21:48:32.257Z,19.70
2022-08-06T21:51:00.625Z,19.70
2022-08-06T21:53:48.739Z,19.70
2022-08-06T21:56:37.030Z,19.70
2022-08-06T21:59:01.800Z,19.70
2022-08-06T22:02:08.784Z,19.60
2022-08-06T22:04:37.692Z,19.60
2022-08-06T22:07:02.129Z,19.60
2022-08-06T22:09:38.440Z,19.60
2022-08-06T22:12:36.508Z,19.60
2022-08-06T22:14:58.737Z,19.60
2022-08-06T22:17:59.323Z,19.70
2022-08-06T22:20:21.748Z,19.70
2022-08-06T22:22:52.479Z,19.70
2022-08-06T22:25:19.678Z,19.70
2022-08-06T22:27:54.152Z,19.80
2022-08-06T22:30:33.531Z,19.80
2022-08-06T22:33:04.933Z,19.80
2022-08-06T22:35:38.598Z,19.80
2022-08-06T22:38:16.756Z,19.80
2022-08-06T22:40:47.855Z,19.70
2022-08-06T22:43:18.150Z,19.70
2022-08-06T22:46:00.760Z,19.70
2022-08-06T22:48:35.290Z,19.70
2022-08-06T22:51:06.237Z,19.70
2022-08-06T22:54:25.743Z,19.60
2022-08-06T22:56:28.457Z,19.60
2022-08-06T22:59:05.713Z,19.50
2022-08-06T23:02:03.678Z,19.50
2022-08-06T23:04:30.910Z,19.50
2022-08-06T23:06:57.816Z,19.40
2022-08-06T23:09:24.784Z,19.40
2022-08-06T23:12:00.074Z,19.40
2022-08-06T23:14:31.617Z,19.30
2022-08-06T23:16:58.631Z,19.30
2022-08-06T23:19:25.376Z,19.40
2022-08-06T23:22:04.888Z,19.40
2022-08-06T23:24:36.140Z,19.40
2022-08-06T23:27:04.960Z,19.50
2022-08-06T23:30:09.257Z,19.50
2022-08-06T23:32:30.139Z,19.50
2022-08-06T23:34:58.870Z,19.40
2022-08-06T23:37:26.626Z,19.30
2022-08-06T23:40:12.547Z,19.30
2022-08-06T23:42:42.598Z,19.20
2022-08-06T23:45:10.295Z,19.20
2022-08-06T23:47:53.269Z,19.20
2022-08-06T23:50:25.987Z,19.20
2022-08-06T23:53:00.730Z,19.20
2022-08-06T23:55:35.329Z,19.20
2022-08-06T23:58:08.778Z,19.20
